Time;durP1;ratioP1;P1;durP2;ratioP2;P2;SDS_P1;SDS_P2;PMS_P1;PMS_P2;Temp;Humidity;BMP_temperature;BMP_pressure;BME280_temperature;BME280_humidity;BME280_pressure;Samples;Min_cycle;Max_cycle;Signal;HPM_P1;HPM_P2
2024/02/19 00:01:58;;;;;;;10.50;2.95;;;;;;;8.63;100.00;102227.13;5078548;28;20035;-76
2024/02/19 00:04:24;;;;;;;1.88;0.95;;;;;;;8.62;100.00;102232.63;5078545;28;20051;-75
2024/02/19 00:06:50;;;;;;;2.80;1.08;;;;;;;8.63;100.00;102243.22;5095395;28;20543;-76
2024/02/19 00:09:16;;;;;;;3.78;1.55;;;;;;;8.62;100.00;102236.13;5095289;28;20019;-76
2024/02/19 00:11:41;;;;;;;1.25;0.93;;;;;;;8.62;100.00;102217.38;5078410;28;20537;-76
2024/02/19 00:14:07;;;;;;;12.68;1.85;;;;;;;8.61;100.00;102204.13;5078480;28;20032;-76
2024/02/19 00:16:33;;;;;;;5.90;1.40;;;;;;;8.63;100.00;102219.09;5078947;28;20036;-76
2024/02/19 00:18:59;;;;;;;2.28;1.05;;;;;;;8.62;100.00;102221.88;5081797;28;20039;-77
2024/02/19 00:21:24;;;;;;;3.20;1.13;;;;;;;8.62;100.00;102238.81;5082645;28;20043;-75
2024/02/19 00:23:52;;;;;;;1.80;1.02;;;;;;;8.60;100.00;102238.13;5081567;28;20035;-76
2024/02/19 00:26:18;;;;;;;8.23;2.05;;;;;;;8.58;100.00;102229.34;5082166;28;20117;-76
2024/02/19 00:28:45;;;;;;;5.75;1.33;;;;;;;8.58;100.00;102237.38;5081857;28;20027;-76
2024/02/19 00:31:11;;;;;;;7.28;1.67;;;;;;;8.58;100.00;102226.66;5098749;28;20036;-76
2024/02/19 00:33:38;;;;;;;4.32;1.48;;;;;;;8.58;100.00;102242.75;5098315;28;20051;-77
2024/02/19 00:36:07;;;;;;;4.60;1.10;;;;;;;8.62;100.00;102230.78;5098046;28;20024;-76
2024/02/19 00:38:32;;;;;;;3.20;1.40;;;;;;;8.63;100.00;102245.91;5098806;28;20073;-75
2024/02/19 00:40:58;;;;;;;7.13;1.35;;;;;;;8.66;100.00;102247.47;5081763;28;20070;-75
2024/02/19 00:43:24;;;;;;;4.22;1.58;;;;;;;8.63;100.00;102240.53;5097658;28;20023;-75
2024/02/19 00:45:49;;;;;;;5.70;1.58;;;;;;;8.67;100.00;102246.50;5098389;28;20027;-75
2024/02/19 00:48:15;;;;;;;4.45;1.65;;;;;;;8.72;100.00;102246.97;5081233;28;20019;-75
2024/02/19 00:50:41;;;;;;;5.32;1.20;;;;;;;8.78;100.00;102236.56;5081614;28;20027;-75
2024/02/19 00:53:07;;;;;;;0.63;0.63;;;;;;;8.83;100.00;102240.72;5098315;28;20026;-75
2024/02/19 00:55:32;;;;;;;2.78;1.05;;;;;;;8.88;100.00;102231.28;5081382;28;20024;-75
2024/02/19 00:57:58;;;;;;;3.63;1.20;;;;;;;8.92;100.00;102235.44;5081494;28;20383;-76
2024/02/19 01:00:24;;;;;;;3.65;1.10;;;;;;;9.02;100.00;102255.16;5081017;28;20459;-76
2024/02/19 01:02:49;;;;;;;3.58;0.95;;;;;;;9.08;100.00;102245.72;5081275;28;20031;-76
2024/02/19 01:05:15;;;;;;;5.18;1.02;;;;;;;9.14;100.00;102253.25;5098117;28;20040;-75
2024/02/19 01:07:40;;;;;;;2.33;0.98;;;;;;;9.24;100.00;102235.38;5081101;28;20030;-76
2024/02/19 01:10:07;;;;;;;1.60;1.08;;;;;;;9.28;100.00;102232.44;5081252;28;20056;-76
2024/02/19 01:12:32;;;;;;;1.40;0.68;;;;;;;9.38;100.00;102241.41;5080989;28;20035;-76
2024/02/19 01:14:58;;;;;;;2.08;0.82;;;;;;;9.42;100.00;102238.34;5080751;28;20039;-75
2024/02/19 01:17:24;;;;;;;2.33;0.75;;;;;;;9.45;100.00;102235.38;5080766;28;20042;-76
2024/02/19 01:19:49;;;;;;;2.88;1.05;;;;;;;9.49;100.00;102246.69;5097385;28;20046;-76
2024/02/19 01:22:15;;;;;;;4.32;0.88;;;;;;;9.52;100.00;102254.47;5097156;28;20023;-76
2024/02/19 01:24:40;;;;;;;2.67;1.08;;;;;;;9.51;100.00;102250.09;5097701;28;20047;-76
2024/02/19 01:27:08;;;;;;;3.22;1.38;;;;;;;9.49;100.00;102249.38;5080794;28;20042;-76
2024/02/19 01:29:35;;;;;;;4.80;0.90;;;;;;;9.53;100.00;102258.03;5080117;28;20118;-76
2024/02/19 01:32:01;;;;;;;2.03;0.85;;;;;;;9.52;100.00;102251.78;5097119;28;20107;-76
2024/02/19 01:34:27;;;;;;;5.35;1.52;;;;;;;9.52;100.00;102254.47;5097385;28;20383;-76
2024/02/19 01:36:52;;;;;;;8.48;1.15;;;;;;;9.51;100.00;102251.94;5080418;28;20028;-76
2024/02/19 01:39:18;;;;;;;2.38;1.02;;;;;;;9.50;100.00;102244.84;5097385;28;20061;-76
2024/02/19 01:41:44;;;;;;;3.60;0.82;;;;;;;9.51;100.00;102244.72;5080510;28;20028;-76
2024/02/19 01:44:09;;;;;;;0.93;0.60;;;;;;;9.54;100.00;102240.94;5080531;28;20035;-76
2024/02/19 01:46:38;;;;;;;5.88;1.90;;;;;;;9.52;100.00;102240.22;5096882;28;20502;-76
2024/02/19 01:49:04;;;;;;;9.52;1.77;;;;;;;9.50;100.00;102248.41;5080408;28;20031;-75
2024/02/19 01:51:31;;;;;;;7.38;1.75;;;;;;;9.46;100.00;102250.50;5096953;28;20031;-76
2024/02/19 01:53:56;;;;;;;10.85;1.67;;;;;;;9.43;100.00;102257.97;5096916;28;20110;-75
2024/02/19 01:56:22;;;;;;;10.15;1.88;;;;;;;9.38;100.00;102249.47;5079790;28;20038;-76
2024/02/19 01:58:48;;;;;;;13.18;1.83;;;;;;;9.35;100.00;102249.72;5079834;28;20122;-75
2024/02/19 02:01:15;;;;;;;7.93;1.70;;;;;;;9.27;100.00;102247.69;5079954;28;20024;-76
2024/02/19 02:03:42;;;;;;;4.95;1.58;;;;;;;9.13;100.00;102242.63;5096585;28;20036;-75
2024/02/19 02:06:08;;;;;;;7.05;2.35;;;;;;;9.13;100.00;102256.03;5079843;28;20093;-76
2024/02/19 02:08:39;;;;;;;3.40;1.10;;;;;;;9.14;100.00;102252.41;5079522;28;20019;-75
2024/02/19 02:11:06;;;;;;;7.10;2.40;;;;;;;9.11;100.00;102258.03;5113765;28;20110;-75
2024/02/19 02:13:35;;;;;;;2.92;1.02;;;;;;;9.11;100.00;102258.88;5080028;28;20051;-75
2024/02/19 02:16:02;;;;;;;8.82;2.03;;;;;;;9.09;100.00;102250.09;5096297;28;20027;-75
2024/02/19 02:18:30;;;;;;;4.00;0.75;;;;;;;9.08;100.00;102259.16;5096208;28;20039;-76
2024/02/19 02:20:56;;;;;;;13.60;1.77;;;;;;;9.14;100.00;102269.34;5079680;28;20035;-76
2024/02/19 02:23:23;;;;;;;8.70;1.27;;;;;;;9.13;100.00;102261.41;5096390;28;20039;-76
2024/02/19 02:25:49;;;;;;;1.88;0.88;;;;;;;9.10;100.00;102259.84;5095868;28;20043;-76
2024/02/19 02:28:15;;;;;;;6.40;2.97;;;;;;;9.07;100.00;102261.94;5079432;28;20030;-75
2024/02/19 02:30:40;;;;;;;4.22;1.52;;;;;;;9.11;100.00;102268.78;5113027;28;20039;-76
2024/02/19 02:33:06;;;;;;;6.75;1.75;;;;;;;9.03;100.00;102264.88;5096505;28;20027;-75
2024/02/19 02:35:32;;;;;;;10.35;2.17;;;;;;;9.01;100.00;102266.00;5079124;28;20032;-76
2024/02/19 02:37:59;;;;;;;5.70;1.98;;;;;;;9.04;100.00;102279.16;5096150;28;20036;-76
2024/02/19 02:40:26;;;;;;;7.35;1.40;;;;;;;9.00;100.00;102265.16;5096069;28;20032;-76
2024/02/19 02:42:52;;;;;;;22.10;3.05;;;;;;;9.03;100.00;102289.03;5079399;28;20494;-76
2024/02/19 02:45:17;;;;;;;16.88;2.13;;;;;;;8.94;100.00;102289.78;5096147;28;20032;-76
2024/02/19 02:47:43;;;;;;;18.98;2.25;;;;;;;8.81;100.00;102299.84;5096024;28;20039;-76
2024/02/19 02:50:09;;;;;;;3.60;1.35;;;;;;;8.74;100.00;102299.50;5079377;28;20047;-76
2024/02/19 02:52:35;;;;;;;14.45;2.15;;;;;;;8.77;100.00;102309.97;5095580;28;20023;-76
2024/02/19 02:55:00;;;;;;;14.35;1.67;;;;;;;8.84;100.00;102296.91;5079061;28;20055;-75
2024/02/19 02:57:26;;;;;;;11.40;1.52;;;;;;;8.94;100.00;102294.31;5079026;28;20499;-76
2024/02/19 02:59:52;;;;;;;16.35;2.30;;;;;;;8.96;100.00;102298.56;5095763;28;20030;-76
2024/02/19 03:02:18;;;;;;;6.18;1.08;;;;;;;8.95;100.00;102298.72;5079181;28;20375;-76
2024/02/19 03:04:43;;;;;;;5.75;1.45;;;;;;;8.85;100.00;102301.28;5079152;28;20034;-76
2024/02/19 03:07:09;;;;;;;13.82;2.00;;;;;;;8.76;100.00;102302.06;5079153;28;20044;-75
2024/02/19 03:09:35;;;;;;;10.60;1.92;;;;;;;8.70;100.00;102300.72;5096484;28;20181;-76
2024/02/19 03:12:00;;;;;;;11.57;2.30;;;;;;;8.69;100.00;102301.69;5095440;28;20369;-75
2024/02/19 03:14:26;;;;;;;12.77;1.73;;;;;;;8.69;100.00;102295.50;5078855;28;20119;-75
2024/02/19 03:16:52;;;;;;;21.63;2.50;;;;;;;8.66;100.00;102293.91;5095541;28;20038;-75
2024/02/19 03:19:19;;;;;;;12.80;1.92;;;;;;;8.73;100.00;102292.44;5095441;28;20039;-75
2024/02/19 03:21:45;;;;;;;20.25;2.90;;;;;;;8.82;100.00;102284.63;5079322;28;20475;-75
2024/02/19 03:24:10;;;;;;;6.90;1.60;;;;;;;8.80;100.00;102290.94;5079033;28;20035;-76
2024/02/19 03:26:36;;;;;;;16.48;1.67;;;;;;;8.82;100.00;102287.28;5078767;28;20024;-75
2024/02/19 03:29:09;;;;;;;12.50;2.03;;;;;;;8.90;100.00;102292.88;5078865;28;20038;-76
2024/02/19 03:31:35;;;;;;;16.30;3.35;;;;;;;8.91;100.00;102299.94;5112336;28;20425;-75
2024/02/19 03:34:00;;;;;;;3.38;1.73;;;;;;;8.91;100.00;102292.72;5078820;28;20088;-75
2024/02/19 03:36:26;;;;;;;6.68;1.45;;;;;;;8.93;100.00;102304.19;5078401;28;20081;-77
2024/02/19 03:38:52;;;;;;;16.13;2.60;;;;;;;8.95;100.00;102299.56;5078431;28;20114;-75
2024/02/19 03:41:17;;;;;;;5.93;1.77;;;;;;;8.96;100.00;102309.31;5095374;28;20028;-75
2024/02/19 03:43:44;;;;;;;17.73;2.63;;;;;;;9.00;100.00;102302.72;5112562;28;20031;-75
2024/02/19 03:46:10;;;;;;;5.00;2.17;;;;;;;9.00;100.00;102305.41;5079034;28;20122;-76
2024/02/19 03:48:37;;;;;;;14.80;2.25;;;;;;;9.07;100.00;102308.41;5078461;28;20493;-76
2024/02/19 03:51:02;;;;;;;16.45;2.83;;;;;;;9.12;100.00;102294.59;5078831;28;20032;-76
2024/02/19 03:53:29;;;;;;;9.95;2.40;;;;;;;9.15;100.00;102295.19;5082042;28;20391;-76
2024/02/19 03:55:56;;;;;;;16.90;2.67;;;;;;;9.15;100.00;102305.09;5099182;28;20042;-76
2024/02/19 03:58:25;;;;;;;24.30;3.05;;;;;;;9.13;100.00;102302.53;5115609;28;20079;-76
2024/02/19 04:00:51;;;;;;;15.63;2.45;;;;;;;9.04;100.00;102303.28;5082169;28;20040;-75
2024/02/19 04:03:16;;;;;;;1.42;0.73;;;;;;;8.93;100.00;102309.56;5082240;28;20031;-75
2024/02/19 04:05:43;;;;;;;7.93;1.52;;;;;;;8.83;100.00;102315.81;5099062;28;20035;-76
2024/02/19 04:08:09;;;;;;;13.52;2.72;;;;;;;8.70;100.00;102310.59;5099353;28;20132;-75
2024/02/19 04:10:34;;;;;;;7.18;1.63;;;;;;;8.62;100.00;102316.59;5098508;28;20490;-76
2024/02/19 04:13:00;;;;;;;21.77;3.40;;;;;;;8.59;100.00;102306.97;5099265;28;20441;-76
2024/02/19 04:15:27;;;;;;;12.98;2.47;;;;;;;8.50;100.00;102301.50;5081451;28;20463;-76
2024/02/19 04:17:53;;;;;;;20.08;2.95;;;;;;;8.43;100.00;102305.66;5115826;28;20047;-75
2024/02/19 04:20:19;;;;;;;14.93;2.05;;;;;;;8.42;100.00;102307.50;5081683;28;20152;-75
2024/02/19 04:22:45;;;;;;;4.07;1.55;;;;;;;8.37;100.00;102304.28;5081660;28;20408;-76
2024/02/19 04:25:10;;;;;;;7.15;1.23;;;;;;;8.32;100.00;102306.50;5098591;28;20120;-76
2024/02/19 04:27:36;;;;;;;15.25;2.17;;;;;;;8.31;100.00;102302.97;5082133;28;20063;-75
2024/02/19 04:30:02;;;;;;;8.10;2.33;;;;;;;8.23;100.00;102294.69;5081642;28;20031;-75
2024/02/19 04:32:27;;;;;;;15.20;2.47;;;;;;;8.18;100.00;102306.72;5098224;28;20058;-75
2024/02/19 04:34:57;;;;;;;16.25;2.65;;;;;;;8.14;100.00;102306.13;5081613;28;20030;-76
2024/02/19 04:37:23;;;;;;;24.70;3.10;;;;;;;8.09;100.00;102311.00;5098666;28;20031;-76
2024/02/19 04:39:49;;;;;;;18.92;3.00;;;;;;;8.10;100.00;102310.03;5115501;28;20047;-76
2024/02/19 04:42:16;;;;;;;10.07;2.05;;;;;;;8.10;100.00;102307.34;5115211;28;20028;-76
2024/02/19 04:44:41;;;;;;;4.82;0.88;;;;;;;8.12;100.00;102308.94;5081135;28;20107;-76
2024/02/19 04:47:07;;;;;;;8.40;1.77;;;;;;;8.13;100.00;102315.16;5098246;28;20024;-76
2024/02/19 04:49:33;;;;;;;14.75;2.97;;;;;;;8.13;100.00;102317.84;5081522;28;20139;-75
2024/02/19 04:51:59;;;;;;;8.00;2.13;;;;;;;8.04;100.00;102322.06;5115116;28;20472;-76
2024/02/19 04:54:25;;;;;;;15.43;2.90;;;;;;;7.90;100.00;102322.31;5081103;28;20042;-76
2024/02/19 04:56:50;;;;;;;20.92;3.03;;;;;;;7.83;100.00;102315.72;5080890;28;20034;-75
2024/02/19 04:59:16;;;;;;;8.27;1.48;;;;;;;7.84;100.00;102322.78;5081558;28;20066;-76
2024/02/19 05:01:42;;;;;;;22.70;3.17;;;;;;;7.79;100.00;102319.63;5080905;28;20395;-76
2024/02/19 05:04:07;;;;;;;14.48;1.95;;;;;;;7.72;100.00;102325.44;5080801;28;20024;-76
2024/02/19 05:06:33;;;;;;;12.77;2.08;;;;;;;7.72;100.00;102329.94;5097905;28;20034;-76
2024/02/19 05:08:59;;;;;;;12.70;2.25;;;;;;;7.80;100.00;102326.66;5097869;28;20372;-76
2024/02/19 05:11:24;;;;;;;11.15;2.85;;;;;;;7.91;100.00;102335.59;5081064;28;20032;-76
2024/02/19 05:13:50;;;;;;;20.25;3.28;;;;;;;8.01;100.00;102329.50;5114514;28;20399;-76
2024/02/19 05:16:16;;;;;;;13.52;2.25;;;;;;;8.11;100.00;102333.16;5080775;28;20114;-76
2024/02/19 05:18:41;;;;;;;11.40;2.35;;;;;;;8.13;100.00;102348.16;5080858;28;20035;-76
2024/02/19 05:21:07;;;;;;;18.58;2.90;;;;;;;8.08;100.00;102339.63;5080784;28;20031;-76
2024/02/19 05:23:33;;;;;;;16.42;2.42;;;;;;;8.05;100.00;102344.38;5080791;28;20032;-76
2024/02/19 05:26:00;;;;;;;10.43;2.42;;;;;;;8.00;100.00;102338.53;5080425;28;20043;-76
2024/02/19 05:28:25;;;;;;;14.35;2.20;;;;;;;7.93;100.00;102344.34;5080713;28;20383;-76
2024/02/19 05:30:52;;;;;;;27.92;3.35;;;;;;;7.88;100.00;102349.19;5114078;28;20534;-76
2024/02/19 05:33:18;;;;;;;12.80;2.13;;;;;;;7.88;100.00;102346.53;5081107;28;20387;-75
2024/02/19 05:35:47;;;;;;;13.82;1.83;;;;;;;7.82;100.00;102354.19;5080519;28;20019;-76
2024/02/19 05:38:12;;;;;;;12.93;3.58;;;;;;;7.88;100.00;102349.19;5096819;28;20032;-76
2024/02/19 05:40:39;;;;;;;10.88;2.00;;;;;;;7.87;100.00;102350.19;5097674;28;20107;-76
2024/02/19 05:43:05;;;;;;;15.30;2.67;;;;;;;7.82;100.00;102343.47;5080055;28;20030;-76
2024/02/19 05:45:31;;;;;;;25.60;2.60;;;;;;;7.90;100.00;102349.94;5114041;28;20027;-75
2024/02/19 05:47:57;;;;;;;13.40;2.75;;;;;;;7.92;100.00;102345.31;5096719;28;20031;-76
2024/02/19 05:50:23;;;;;;;5.03;1.52;;;;;;;7.93;100.00;102346.16;5080189;28;20035;-76
2024/02/19 05:52:49;;;;;;;11.57;2.15;;;;;;;7.95;100.00;102348.75;5080027;28;20059;-75
2024/02/19 05:55:14;;;;;;;4.75;1.50;;;;;;;8.00;100.00;102351.91;5096204;28;20046;-76
2024/02/19 05:57:40;;;;;;;7.70;1.83;;;;;;;8.01;100.00;102358.97;5079685;28;20040;-77
2024/02/19 06:00:13;;;;;;;16.13;2.58;;;;;;;8.03;100.00;102357.88;5080015;28;20104;-76
2024/02/19 06:02:44;;;;;;;5.32;1.25;;;;;;;8.03;100.00;102354.34;5097772;28;20034;-76
2024/02/19 06:05:10;;;;;;;11.75;2.15;;;;;;;8.04;100.00;102348.84;5097401;28;20042;-76
2024/02/19 06:07:36;;;;;;;9.32;1.50;;;;;;;8.02;100.00;102353.50;5079897;28;20386;-75
2024/02/19 06:10:03;;;;;;;16.10;3.08;;;;;;;7.97;100.00;102352.16;5096623;28;20092;-76
2024/02/19 06:12:29;;;;;;;14.98;2.53;;;;;;;7.96;100.00;102350.44;5096243;28;20028;-76
2024/02/19 06:14:54;;;;;;;8.02;2.75;;;;;;;7.92;100.00;102349.84;5079071;28;20442;-76
2024/02/19 06:17:20;;;;;;;13.73;2.05;;;;;;;7.92;100.00;102350.69;5079696;28;20039;-76
2024/02/19 06:19:48;;;;;;;6.75;1.30;;;;;;;7.93;100.00;102349.69;5079399;28;20038;-76
2024/02/19 06:22:14;;;;;;;10.77;2.83;;;;;;;7.92;100.00;102339.97;5079567;28;20039;-76
2024/02/19 06:24:40;;;;;;;11.25;1.85;;;;;;;7.87;100.00;102347.50;5079516;28;20039;-75
2024/02/19 06:27:08;;;;;;;5.28;2.60;;;;;;;7.90;100.00;102349.94;5079485;28;20039;-76
2024/02/19 06:29:34;;;;;;;15.30;1.77;;;;;;;7.90;100.00;102351.78;5096816;28;20126;-76
2024/02/19 06:32:00;;;;;;;5.07;1.25;;;;;;;7.85;100.00;102352.13;5096299;28;20035;-75
2024/02/19 06:34:31;;;;;;;21.30;2.95;;;;;;;7.85;100.00;102367.34;5079295;28;20031;-75
2024/02/19 06:36:57;;;;;;;7.38;1.40;;;;;;;7.80;100.00;102361.47;5096958;28;20074;-76
2024/02/19 06:39:22;;;;;;;17.35;3.08;;;;;;;7.78;100.00;102368.78;5079215;28;20067;-75
2024/02/19 06:41:48;;;;;;;10.05;1.35;;;;;;;7.70;100.00;102372.06;5095796;28;20023;-76
2024/02/19 06:44:14;;;;;;;11.32;3.20;;;;;;;7.71;100.00;102379.97;5095459;28;20028;-75
2024/02/19 06:46:39;;;;;;;10.68;1.92;;;;;;;7.75;100.00;102383.25;5078903;28;20546;-76
2024/02/19 06:49:05;;;;;;;20.80;3.25;;;;;;;7.79;100.00;102386.56;5078994;28;20388;-76
2024/02/19 06:51:31;;;;;;;11.20;1.20;;;;;;;7.81;100.00;102390.00;5096512;28;20024;-76
2024/02/19 06:53:56;;;;;;;16.90;3.22;;;;;;;7.81;100.00;102392.66;5079606;28;20464;-76
2024/02/19 06:56:22;;;;;;;17.13;2.72;;;;;;;7.77;100.00;102396.53;5078628;28;20383;-76
2024/02/19 06:58:48;;;;;;;31.98;4.28;;;;;;;7.74;100.00;102404.81;5095774;28;20042;-76
2024/02/19 07:01:16;;;;;;;21.92;3.97;;;;;;;7.77;100.00;102405.41;5079048;28;20031;-76
2024/02/19 07:03:42;;;;;;;0.68;0.68;;;;;;;7.74;100.00;102407.50;5079076;28;20042;-75
2024/02/19 07:06:08;;;;;;;17.55;2.65;;;;;;;7.81;100.00;102412.25;5078855;28;20035;-75
2024/02/19 07:08:34;;;;;;;9.55;2.17;;;;;;;7.82;100.00;102405.91;5078536;28;20031;-76
2024/02/19 07:10:59;;;;;;;6.70;1.42;;;;;;;7.77;100.00;102408.09;5079122;28;20047;-75
2024/02/19 07:13:25;;;;;;;13.68;2.58;;;;;;;7.77;100.00;102409.94;5078796;28;20066;-76
2024/02/19 07:15:51;;;;;;;21.52;3.17;;;;;;;7.75;100.00;102411.84;5078617;28;20364;-76
2024/02/19 07:18:16;;;;;;;15.88;3.45;;;;;;;7.70;100.00;102410.41;5078866;28;20036;-76
2024/02/19 07:20:42;;;;;;;20.33;3.60;;;;;;;7.63;100.00;102416.34;5078991;28;20084;-75
2024/02/19 07:23:08;;;;;;;7.35;1.98;;;;;;;7.56;100.00;102423.13;5078789;28;20028;-75
2024/02/19 07:25:33;;;;;;;3.97;1.02;;;;;;;7.54;100.00;102412.53;5078739;28;20024;-75
2024/02/19 07:27:59;;;;;;;26.00;2.92;;;;;;;7.57;100.00;102414.09;5082667;28;20042;-76
2024/02/19 07:30:25;;;;;;;22.15;2.88;;;;;;;7.56;100.00;102421.28;5099889;28;20096;-76
2024/02/19 07:32:50;;;;;;;19.13;2.40;;;;;;;7.53;100.00;102415.31;5081271;28;20057;-76
2024/02/19 07:35:16;;;;;;;17.92;3.22;;;;;;;7.50;100.00;102421.75;5082402;28;20430;-76
2024/02/19 07:37:42;;;;;;;16.13;2.78;;;;;;;7.34;100.00;102418.53;5082726;28;20027;-76
2024/02/19 07:40:09;;;;;;;14.65;2.92;;;;;;;7.23;100.00;102422.84;5082409;28;20123;-76
2024/02/19 07:42:36;;;;;;;17.17;2.78;;;;;;;7.09;100.00;102414.97;5115805;28;20036;-75
2024/02/19 07:45:05;;;;;;;17.90;3.22;;;;;;;6.91;100.00;102417.19;5099273;28;20032;-76
2024/02/19 07:47:32;;;;;;;14.18;2.80;;;;;;;6.81;100.00;102426.81;5082606;28;20562;-75
2024/02/19 07:49:57;;;;;;;19.67;2.95;;;;;;;6.73;100.00;102434.53;5082316;28;20165;-76
2024/02/19 07:52:23;;;;;;;18.05;3.20;;;;;;;6.70;100.00;102429.41;5082257;28;20089;-75
2024/02/19 07:54:49;;;;;;;22.45;3.05;;;;;;;6.62;100.00;102434.47;5082392;28;20066;-76
2024/02/19 07:57:14;;;;;;;29.33;3.38;;;;;;;6.54;100.00;102443.88;5098862;28;20039;-76
2024/02/19 07:59:40;;;;;;;18.33;2.88;;;;;;;6.48;100.00;102443.44;5082259;28;20130;-76
2024/02/19 08:02:06;;;;;;;22.77;3.20;;;;;;;6.41;100.00;102451.03;5098384;28;20034;-76
2024/02/19 08:04:32;;;;;;;20.23;3.33;;;;;;;6.37;100.00;102446.84;5099032;28;20495;-75
2024/02/19 08:06:58;;;;;;;29.80;3.17;;;;;;;6.30;100.00;102453.59;5082034;28;20031;-76
2024/02/19 08:09:24;;;;;;;17.52;2.67;;;;;;;6.25;100.00;102455.75;5082083;28;20080;-76
2024/02/19 08:11:51;;;;;;;25.23;4.03;;;;;;;6.26;100.00;102460.09;5082023;28;20129;-76
2024/02/19 08:14:18;;;;;;;12.07;2.55;;;;;;;6.26;100.00;102476.97;5081873;28;20034;-76
2024/02/19 08:16:51;;;;;;;28.55;5.53;;;;;;;6.30;100.00;102474.97;5115711;28;20031;-75
2024/02/19 08:19:18;;;;;;;35.10;8.80;;;;;;;6.44;100.00;102476.69;5081805;28;20044;-76
2024/02/19 08:21:44;;;;;;;24.05;7.65;;;;;;;6.58;100.00;102482.75;5082098;28;20059;-75
2024/02/19 08:24:10;;;;;;;33.90;12.45;;;;;;;6.75;100.00;102484.25;5098185;28;20031;-75
2024/02/19 08:26:36;;;;;;;24.33;6.97;;;;;;;6.83;100.00;102492.59;5098154;28;20047;-76
2024/02/19 08:29:02;;;;;;;31.67;5.80;;;;;;;6.92;100.00;102493.75;5081700;28;20387;-75
2024/02/19 08:31:27;;;;;;;21.95;4.75;;;;;;;6.98;100.00;102487.94;5081619;28;20562;-75
2024/02/19 08:33:57;;;;;;;28.75;4.97;;;;;;;7.06;100.00;102484.72;5081612;28;20376;-76
2024/02/19 08:36:23;;;;;;;37.60;5.75;;;;;;;7.17;100.00;102486.63;5115050;28;20468;-75
2024/02/19 08:38:53;;;;;;;26.85;3.65;;;;;;;7.23;100.00;102480.84;5080665;28;20038;-76
2024/02/19 08:41:22;;;;;;;14.85;3.28;;;;;;;7.27;100.00;102480.50;5115312;28;20479;-75
2024/02/19 08:43:48;;;;;;;13.13;3.47;;;;;;;7.37;100.00;102483.34;5098345;28;20035;-76
2024/02/19 08:46:15;;;;;;;27.58;3.30;;;;;;;7.52;100.00;102476.03;5081270;28;20065;-76
2024/02/19 08:48:40;;;;;;;16.90;2.83;;;;;;;7.68;100.00;102481.09;5081773;28;20088;-75
2024/02/19 08:51:06;;;;;;;21.75;2.83;;;;;;;7.81;100.00;102476.53;5098012;28;20027;-75
2024/02/19 08:53:33;;;;;;;16.38;2.75;;;;;;;7.92;100.00;102478.41;5098173;28;20062;-76
2024/02/19 08:55:58;;;;;;;12.25;2.33;;;;;;;8.02;100.00;102468.69;5114995;28;20020;-75
2024/02/19 08:58:25;;;;;;;22.60;3.72;;;;;;;8.10;100.00;102478.81;5081372;28;20092;-75
2024/02/19 09:00:51;;;;;;;15.15;2.85;;;;;;;8.14;100.00;102481.13;5081158;28;20039;-76
2024/02/19 09:03:17;;;;;;;22.25;3.90;;;;;;;8.19;100.00;102486.16;5081360;28;20119;-75
2024/02/19 09:05:43;;;;;;;24.50;2.83;;;;;;;8.27;100.00;102489.09;5080383;28;20075;-75
2024/02/19 09:08:10;;;;;;;17.50;3.10;;;;;;;8.33;100.00;102499.31;5097300;28;20418;-75
2024/02/19 09:10:39;;;;;;;21.67;3.42;;;;;;;8.41;100.00;102505.97;5097939;28;20035;-75
2024/02/19 09:13:07;;;;;;;16.90;3.25;;;;;;;8.46;100.00;102503.78;5098177;28;20092;-75
2024/02/19 09:15:32;;;;;;;18.45;3.03;;;;;;;8.65;100.00;102497.81;5080808;28;20062;-75
2024/02/19 09:17:58;;;;;;;13.02;2.75;;;;;;;8.80;100.00;102501.97;5097906;28;20035;-75
2024/02/19 09:20:24;;;;;;;7.25;2.20;;;;;;;8.93;100.00;102507.22;5081122;28;20043;-75
2024/02/19 09:22:49;;;;;;;12.77;2.83;;;;;;;9.22;100.00;102510.25;5080926;28;20043;-75
2024/02/19 09:25:15;;;;;;;11.32;2.45;;;;;;;9.45;100.00;102508.41;5080807;28;20054;-75
2024/02/19 09:27:41;;;;;;;21.73;3.40;;;;;;;9.54;100.00;102515.69;5080695;28;20039;-75
2024/02/19 09:30:07;;;;;;;17.25;2.55;;;;;;;9.53;100.00;102519.34;5097469;28;20038;-75
2024/02/19 09:32:33;;;;;;;19.02;3.53;;;;;;;9.63;100.00;102517.63;5097428;28;20058;-75
2024/02/19 09:35:01;;;;;;;18.05;3.42;;;;;;;9.59;100.00;102512.63;5097659;28;20063;-75
2024/02/19 09:37:27;;;;;;;30.48;3.33;;;;;;;9.56;100.00;102527.16;5097047;28;20039;-74
2024/02/19 09:39:58;;;;;;;32.70;4.15;;;;;;;9.48;100.00;102537.69;5080339;28;20100;-74
2024/02/19 09:42:28;;;;;;;18.40;2.53;;;;;;;9.43;100.00;102537.19;5081088;28;20031;-74
2024/02/19 09:44:54;;;;;;;5.72;1.42;;;;;;;9.44;100.00;102542.44;5096642;28;20027;-75
2024/02/19 09:47:20;;;;;;;23.02;3.22;;;;;;;9.64;100.00;102539.97;5096847;28;20083;-75
2024/02/19 09:49:48;;;;;;;9.63;2.80;;;;;;;10.19;100.00;102537.16;5096036;28;20063;-75
2024/02/19 09:52:21;;;;;;;17.23;2.95;;;;;;;10.83;100.00;102530.84;5097149;28;20071;-75
2024/02/19 09:54:47;;;;;;;14.57;2.20;;;;;;;12.36;100.00;102526.84;5097398;28;20054;-75
2024/02/19 09:57:13;;;;;;;11.50;2.35;;;;;;;12.30;100.00;102531.88;5096555;28;20459;-75
2024/02/19 09:59:42;;;;;;;15.38;2.63;;;;;;;11.62;100.00;102536.34;5096989;28;20036;-75
2024/02/19 10:02:09;;;;;;;15.80;2.78;;;;;;;11.22;100.00;102540.78;5097366;28;20468;-75
2024/02/19 10:04:35;;;;;;;13.32;2.53;;;;;;;11.18;100.00;102536.66;5096856;28;20031;-75
2024/02/19 10:07:02;;;;;;;15.65;3.47;;;;;;;11.54;100.00;102537.03;5095586;28;20490;-75
2024/02/19 10:09:29;;;;;;;9.00;2.65;;;;;;;11.40;100.00;102540.94;5094672;28;20034;-76
2024/02/19 10:11:57;;;;;;;17.77;2.65;;;;;;;11.17;100.00;102548.41;5077475;28;20039;-75
2024/02/19 10:14:24;;;;;;;13.95;2.70;;;;;;;11.18;100.00;102560.03;5077575;28;20092;-76
2024/02/19 10:16:51;;;;;;;20.15;3.25;;;;;;;11.31;100.00;102562.50;5094159;28;20060;-75
2024/02/19 10:19:16;;;;;;;12.70;2.42;;;;;;;11.56;100.00;102559.28;5077191;28;20398;-76
2024/02/19 10:21:50;;;;;;;14.50;3.05;;;;;;;12.45;100.00;102555.69;5092483;27;20924;-74
2024/02/19 10:24:16;;;;;;;21.77;2.92;;;;;;;12.97;100.00;102554.28;5072927;28;20181;-73
2024/02/19 10:26:43;;;;;;;23.27;4.10;;;;;;;13.19;100.00;102550.34;5056520;28;20036;-74
2024/02/19 10:29:08;;;;;;;19.77;3.60;;;;;;;13.03;100.00;102557.38;5056540;28;20037;-74
2024/02/19 10:31:34;;;;;;;9.90;2.83;;;;;;;12.66;100.00;102559.06;5058303;28;20033;-74
2024/02/19 10:34:00;;;;;;;19.52;3.03;;;;;;;12.25;100.00;102554.84;5084574;28;20037;-74
2024/02/19 10:36:26;;;;;;;22.55;3.80;;;;;;;12.18;100.00;102559.13;5088413;28;20119;-74
2024/02/19 10:38:52;;;;;;;13.40;2.38;;;;;;;12.19;100.00;102555.41;5068953;28;20043;-74
2024/02/19 10:41:23;;;;;;;8.75;2.42;;;;;;;12.46;100.00;102551.97;5067955;28;20118;-74
2024/02/19 10:43:51;;;;;;;24.23;3.90;;;;;;;12.59;100.00;102549.81;5055924;28;20122;-74
2024/02/19 10:46:22;;;;;;;25.48;3.65;;;;;;;12.52;100.00;102546.03;5053081;28;20106;-74
2024/02/19 10:48:49;;;;;;;14.32;3.42;;;;;;;12.67;100.00;102543.69;5041212;28;20031;-75
2024/02/19 10:51:17;;;;;;;23.52;3.88;;;;;;;13.52;100.00;102529.16;5045092;28;20048;-74
2024/02/19 10:53:44;;;;;;;13.38;2.85;;;;;;;14.32;100.00;102544.63;5036207;28;20032;-75
2024/02/19 10:56:17;;;;;;;16.52;3.22;;;;;;;14.02;100.00;102539.44;5088131;28;20052;-74
2024/02/19 10:58:56;;;;;;;20.42;3.63;;;;;;;13.93;100.00;102532.28;5072169;28;20425;-74
2024/02/19 11:01:22;;;;;;;22.13;4.85;;;;;;;13.64;100.00;102529.78;5072302;28;20036;-74
2024/02/19 11:03:49;;;;;;;15.82;2.97;;;;;;;13.41;100.00;102537.47;5071977;28;20028;-74
2024/02/19 11:06:14;;;;;;;19.40;4.05;;;;;;;12.87;100.00;102522.91;5070485;28;20097;-74
2024/02/19 11:08:50;;;;;;;18.55;4.05;;;;;;;13.67;100.00;102518.66;5071427;28;20386;-74
2024/02/19 11:11:19;;;;;;;26.85;4.70;;;;;;;14.39;100.00;102527.56;5072888;28;20029;-74
2024/02/19 11:13:47;;;;;;;24.77;4.60;;;;;;;14.36;100.00;102522.50;5055752;28;20078;-74
2024/02/19 11:16:20;;;;;;;16.88;3.90;;;;;;;13.93;100.00;102534.13;5071974;28;20036;-74